Time;durP1;ratioP1;P1;durP2;ratioP2;P2;SDS_P1;SDS_P2;PMS_P1;PMS_P2;Temp;Humidity;BMP_temperature;BMP_pressure;BME280_temperature;BME280_humidity;BME280_pressure;Samples;Min_cycle;Max_cycle;Signal;HPM_P1;HPM_P2
2023/08/23 04:22:31;;;;;;;17.80;13.70;;;;;;;18.55;100.00;100493.56;5069213;28;20165;-71
2023/08/23 04:24:57;;;;;;;15.20;12.32;;;;;;;18.52;100.00;100491.31;5068001;28;20041;-69
2023/08/23 04:27:23;;;;;;;18.08;12.70;;;;;;;18.46;100.00;100494.88;5067898;28;20557;-70
2023/08/23 04:29:49;;;;;;;19.15;12.73;;;;;;;18.50;100.00;100493.38;5067528;28;20135;-70
2023/08/23 04:32:14;;;;;;;16.13;12.48;;;;;;;18.50;100.00;100492.56;5067787;28;20086;-70
2023/08/23 04:34:41;;;;;;;16.45;12.60;;;;;;;18.51;100.00;100486.94;5068097;28;20418;-70
2023/08/23 04:37:07;;;;;;;16.92;12.30;;;;;;;18.48;100.00;100487.41;5069056;28;20037;-70
2023/08/23 04:39:34;;;;;;;16.08;12.20;;;;;;;18.45;100.00;100490.50;5068734;28;20564;-70
2023/08/23 04:41:59;;;;;;;12.45;11.15;;;;;;;18.48;100.00;100495.50;5067622;28;20048;-70
2023/08/23 04:44:27;;;;;;;16.25;11.40;;;;;;;18.46;100.00;100489.50;5067444;28;20075;-70
2023/08/23 04:46:54;;;;;;;19.27;11.82;;;;;;;18.55;100.00;100495.44;5067552;28;20048;-69
2023/08/23 04:49:21;;;;;;;20.13;13.93;;;;;;;18.50;100.00;100500.66;5067388;28;20110;-70
2023/08/23 04:51:46;;;;;;;31.05;18.35;;;;;;;18.51;100.00;100497.72;5068706;28;20491;-70
2023/08/23 04:54:12;;;;;;;17.65;14.05;;;;;;;18.51;100.00;100499.59;5068658;28;20037;-70
2023/08/23 04:56:38;;;;;;;26.60;18.92;;;;;;;18.60;100.00;100506.41;5067314;28;20056;-70
2023/08/23 04:59:03;;;;;;;21.90;15.32;;;;;;;18.55;100.00;100495.44;5068260;28;20040;-70
2023/08/23 05:01:29;;;;;;;15.68;13.35;;;;;;;18.48;100.00;100508.16;5068475;28;20120;-69
2023/08/23 05:03:54;;;;;;;20.63;14.52;;;;;;;18.50;100.00;100504.19;5067228;28;20091;-69
2023/08/23 05:06:21;;;;;;;15.20;12.13;;;;;;;18.45;100.00;100506.69;5067147;28;20454;-69
2023/08/23 05:08:47;;;;;;;18.85;13.25;;;;;;;18.44;100.00;100513.97;5066869;28;20474;-69
2023/08/23 05:11:19;;;;;;;13.73;10.98;;;;;;;18.52;100.00;100503.94;5067097;28;20078;-69
2023/08/23 05:13:44;;;;;;;14.05;11.48;;;;;;;18.59;100.00;100510.97;5068238;28;20505;-70
2023/08/23 05:16:12;;;;;;;14.20;11.77;;;;;;;18.69;100.00;100503.22;5066798;28;20555;-69
2023/08/23 05:18:37;;;;;;;20.55;11.43;;;;;;;18.75;100.00;100504.22;5066803;28;20040;-69
2023/08/23 05:21:04;;;;;;;13.35;11.30;;;;;;;18.80;100.00;100506.28;5066666;28;20045;-69
2023/08/23 05:23:29;;;;;;;14.35;11.40;;;;;;;18.79;100.00;100504.63;5066703;28;20446;-68
2023/08/23 05:25:56;;;;;;;18.55;11.93;;;;;;;18.75;100.00;100501.53;5066609;28;20039;-68
2023/08/23 05:28:22;;;;;;;14.00;11.30;;;;;;;18.81;100.00;100507.91;5066564;28;20032;-68
2023/08/23 05:30:49;;;;;;;15.25;11.90;;;;;;;18.88;100.00;100503.28;5067559;28;20032;-68
2023/08/23 05:33:18;;;;;;;14.65;10.90;;;;;;;18.91;100.00;100506.38;5056603;28;20435;-70
2023/08/23 05:35:43;;;;;;;13.43;11.52;;;;;;;18.96;100.00;100508.41;5053282;28;20052;-70
2023/08/23 05:38:10;;;;;;;14.27;11.57;;;;;;;19.02;100.00;100512.91;5053376;28;20060;-70
2023/08/23 05:40:36;;;;;;;16.30;11.23;;;;;;;19.07;100.00;100515.78;5054233;28;20483;-70
2023/08/23 05:43:03;;;;;;;14.32;11.52;;;;;;;19.14;100.00;100518.41;5054525;28;20102;-70
2023/08/23 05:45:28;;;;;;;17.00;12.13;;;;;;;19.19;100.00;100524.78;5054244;28;20049;-54
2023/08/23 05:47:54;;;;;;;17.42;11.90;;;;;;;19.23;100.00;100520.63;5054299;28;20103;-57
2023/08/23 05:50:21;;;;;;;17.23;12.68;;;;;;;19.33;100.00;100520.09;5052804;28;20068;-53
2023/08/23 05:52:47;;;;;;;16.70;12.05;;;;;;;19.43;100.00;100527.66;5054398;28;20033;-54
2023/08/23 05:55:13;;;;;;;18.17;13.52;;;;;;;19.52;100.00;100531.72;5054124;28;20557;-53
2023/08/23 05:57:38;;;;;;;17.60;12.98;;;;;;;19.61;100.00;100530.38;5054162;28;20041;-56
2023/08/23 06:00:05;;;;;;;21.50;12.90;;;;;;;19.73;100.00;100533.16;5053876;28;20114;-53
2023/08/23 06:02:38;;;;;;;17.65;13.40;;;;;;;19.84;100.00;100531.59;5054057;28;20045;-55
2023/08/23 06:05:05;;;;;;;20.00;13.65;;;;;;;20.00;100.00;100541.75;5054214;28;20037;-53
2023/08/23 06:07:31;;;;;;;15.27;13.07;;;;;;;20.11;100.00;100535.59;5054011;28;20116;-53
2023/08/23 06:09:56;;;;;;;16.73;13.60;;;;;;;20.19;100.00;100535.28;5053878;28;20432;-53
2023/08/23 06:12:24;;;;;;;16.10;12.13;;;;;;;20.28;100.00;100536.63;5054048;28;20483;-53
2023/08/23 06:14:49;;;;;;;14.68;11.30;;;;;;;20.37;100.00;100536.28;5054015;28;20133;-52
2023/08/23 06:17:14;;;;;;;15.93;11.38;;;;;;;20.44;100.00;100537.00;5053792;28;20052;-51
2023/08/23 06:19:40;;;;;;;14.88;11.65;;;;;;;20.50;100.00;100544.22;5053571;28;20041;-53
2023/08/23 06:22:05;;;;;;;17.58;12.45;;;;;;;20.55;100.00;100541.66;5070590;28;20123;-54
2023/08/23 06:24:31;;;;;;;14.05;11.38;;;;;;;20.63;100.00;100544.03;5073671;28;20048;-56
2023/08/23 06:26:56;;;;;;;22.27;11.40;;;;;;;20.68;100.00;100537.94;5073996;28;20041;-52
2023/08/23 06:29:21;;;;;;;18.10;11.00;;;;;;;20.73;100.00;100541.56;5073391;28;20071;-56
2023/08/23 06:31:47;;;;;;;13.63;11.00;;;;;;;20.81;100.00;100540.41;5073644;28;20123;-56
2023/08/23 06:34:12;;;;;;;16.67;10.95;;;;;;;20.86;100.00;100533.25;5073494;28;20090;-57
2023/08/23 06:36:37;;;;;;;16.98;10.80;;;;;;;20.91;100.00;100523.59;5073468;28;20028;-53
2023/08/23 06:39:03;;;;;;;13.55;11.48;;;;;;;20.95;100.00;100525.59;5073118;28;20048;-52
2023/08/23 06:41:28;;;;;;;13.05;10.40;;;;;;;21.01;100.00;100531.97;5073370;28;20036;-54
2023/08/23 06:43:59;;;;;;;14.43;9.90;;;;;;;21.10;100.00;100527.81;5072734;28;20534;-56
2023/08/23 06:46:24;;;;;;;12.82;9.82;;;;;;;21.12;99.84;100526.53;5073337;28;20525;-54
2023/08/23 06:48:50;;;;;;;13.73;10.60;;;;;;;21.20;98.95;100535.38;5072960;28;20029;-56
2023/08/23 06:51:15;;;;;;;14.35;10.52;;;;;;;21.21;97.81;100543.25;5073190;28;20039;-55
2023/08/23 06:53:40;;;;;;;14.30;10.10;;;;;;;21.29;98.39;100548.34;5073441;28;20448;-54
2023/08/23 06:56:11;;;;;;;12.65;9.45;;;;;;;21.33;97.82;100538.69;5072826;28;20107;-56
2023/08/23 06:58:37;;;;;;;12.90;9.75;;;;;;;21.37;96.45;100547.16;5072965;28;20041;-54
2023/08/23 07:01:04;;;;;;;14.88;10.10;;;;;;;21.40;95.95;100539.41;5072681;28;20113;-56
2023/08/23 07:03:29;;;;;;;;;;;;;;;21.48;96.45;100540.09;5073371;28;20041;-56
2023/08/23 07:05:55;;;;;;;14.25;10.07;;;;;;;21.49;95.80;100541.72;5072873;28;19945;-67
2023/08/23 07:08:20;;;;;;;13.35;9.27;;;;;;;21.56;95.59;100539.72;5072950;28;20055;-67
2023/08/23 07:10:46;;;;;;;11.90;8.95;;;;;;;21.63;95.18;100543.94;5072959;28;20033;-67
2023/08/23 07:13:11;;;;;;;9.70;8.73;;;;;;;21.71;94.24;100552.75;5072898;28;20534;-68
2023/08/23 07:15:38;;;;;;;11.10;8.82;;;;;;;21.73;93.52;100551.47;5072552;28;20044;-68
2023/08/23 07:18:04;;;;;;;9.55;8.52;;;;;;;21.77;94.10;100547.19;5072691;28;20036;-68
2023/08/23 07:20:29;;;;;;;12.68;9.13;;;;;;;21.84;94.25;100538.94;5072237;28;20668;-67
2023/08/23 07:22:55;;;;;;;12.77;8.45;;;;;;;21.90;93.51;100540.69;5072493;28;20028;-67
2023/08/23 07:25:20;;;;;;;9.23;8.27;;;;;;;21.92;93.53;100541.28;5072353;28;20454;-67
2023/08/23 07:27:45;;;;;;;13.90;8.07;;;;;;;22.01;93.67;100541.72;5072288;28;20040;-67
2023/08/23 07:30:12;;;;;;;15.57;8.70;;;;;;;22.13;93.83;100548.78;5071961;28;20032;-68
2023/08/23 07:32:37;;;;;;;13.95;8.00;;;;;;;22.20;93.97;100538.59;5072290;28;20039;-68
2023/08/23 07:35:03;;;;;;;12.75;8.00;;;;;;;22.26;91.70;100547.66;5072000;28;20127;-68
2023/08/23 07:37:28;;;;;;;12.02;8.35;;;;;;;22.29;91.49;100547.16;5071938;28;20055;-67
2023/08/23 07:39:55;;;;;;;10.88;7.68;;;;;;;22.36;91.83;100550.56;5072098;28;20040;-68
2023/08/23 07:42:20;;;;;;;9.55;7.97;;;;;;;22.44;91.81;100543.94;5072186;28;20108;-68
2023/08/23 07:44:46;;;;;;;11.13;7.35;;;;;;;22.50;91.79;100542.13;5072086;28;20115;-67
2023/08/23 07:47:11;;;;;;;11.73;7.93;;;;;;;22.51;90.84;100541.06;5071991;28;20487;-68
2023/08/23 07:49:37;;;;;;;11.82;7.47;;;;;;;22.62;90.37;100551.81;5071804;28;20047;-68
2023/08/23 07:52:03;;;;;;;15.55;7.55;;;;;;;22.67;89.61;100553.81;5071896;28;20044;-67
2023/08/23 07:54:28;;;;;;;10.32;7.57;;;;;;;22.74;91.34;100554.47;5071943;28;20044;-67
2023/08/23 07:56:53;;;;;;;10.48;7.22;;;;;;;22.81;89.56;100547.00;5071726;28;20036;-67
2023/08/23 07:59:19;;;;;;;8.50;7.25;;;;;;;22.90;89.37;100555.59;5071652;28;20502;-67
2023/08/23 08:01:44;;;;;;;11.80;6.80;;;;;;;23.04;89.39;100561.53;5071976;28;20024;-68
2023/08/23 08:04:10;;;;;;;11.15;6.95;;;;;;;23.10;89.72;100563.25;5072021;28;20498;-67
2023/08/23 08:06:35;;;;;;;10.73;6.57;;;;;;;23.19;90.06;100557.13;5071692;28;20044;-68
2023/08/23 08:09:00;;;;;;;9.52;6.63;;;;;;;23.27;89.60;100564.03;5071478;28;20047;-67
2023/08/23 08:11:26;;;;;;;9.48;6.57;;;;;;;23.37;85.03;100552.50;5071899;28;20042;-67
2023/08/23 08:13:51;;;;;;;9.85;7.22;;;;;;;23.44;85.21;100556.69;5071788;28;20407;-68
2023/08/23 08:16:17;;;;;;;10.65;6.75;;;;;;;23.49;85.43;100555.94;5071726;28;20402;-68
2023/08/23 08:18:45;;;;;;;8.55;6.07;;;;;;;23.59;83.17;100560.69;5071378;28;20430;-68
2023/08/23 08:21:10;;;;;;;6.70;5.82;;;;;;;23.62;82.81;100554.78;5071684;28;20529;-67
2023/08/23 08:23:36;;;;;;;7.50;6.57;;;;;;;23.70;82.67;100554.34;5071701;28;20040;-67
2023/08/23 08:26:02;;;;;;;12.07;6.68;;;;;;;23.73;82.69;100554.63;5053746;28;20037;-67
2023/08/23 08:28:28;;;;;;;8.35;5.78;;;;;;;23.85;82.68;100554.53;5071592;28;20078;-67
2023/08/23 08:30:53;;;;;;;12.75;6.43;;;;;;;24.00;82.29;100562.06;5071385;28;20437;-68
2023/08/23 08:33:19;;;;;;;6.28;5.68;;;;;;;24.06;81.13;100556.44;5071707;28;20127;-68
2023/08/23 08:35:45;;;;;;;10.38;5.70;;;;;;;24.09;79.74;100547.75;5071384;28;20044;-68
2023/08/23 08:38:10;;;;;;;6.53;5.55;;;;;;;24.19;81.04;100549.75;5071491;28;20093;-68
2023/08/23 08:40:36;;;;;;;7.53;5.50;;;;;;;24.24;77.96;100544.34;5071239;28;20043;-68
2023/08/23 08:43:02;;;;;;;7.63;5.50;;;;;;;24.36;78.09;100557.84;5071585;28;20040;-68
2023/08/23 08:45:27;;;;;;;7.75;5.95;;;;;;;24.41;77.85;100555.19;5071441;28;20037;-68
2023/08/23 08:47:53;;;;;;;11.57;5.72;;;;;;;24.47;76.78;100554.16;5053873;28;20441;-67
2023/08/23 08:50:19;;;;;;;8.05;5.75;;;;;;;24.57;77.25;100556.94;5071080;28;20129;-68
2023/08/23 08:52:50;;;;;;;6.88;5.28;;;;;;;24.70;75.40;100558.44;5071481;28;20067;-67
2023/08/23 08:55:17;;;;;;;7.22;5.35;;;;;;;24.78;74.08;100562.59;5071325;28;20124;-68
2023/08/23 08:57:45;;;;;;;7.17;5.17;;;;;;;24.83;73.87;100559.91;5071500;28;20568;-68
2023/08/23 09:00:11;;;;;;;9.27;5.80;;;;;;;24.88;73.62;100563.50;5071198;28;20035;-68
2023/08/23 09:02:39;;;;;;;8.68;5.18;;;;;;;25.00;75.60;100563.31;5071235;28;20395;-68
2023/08/23 09:05:06;;;;;;;6.30;4.93;;;;;;;25.11;72.88;100559.63;5071187;28;20032;-68
2023/08/23 09:07:32;;;;;;;8.15;5.50;;;;;;;25.20;73.84;100561.84;5072163;28;20483;-68
2023/08/23 09:09:57;;;;;;;6.97;4.72;;;;;;;25.34;72.68;100557.59;5074886;28;20040;-68
2023/08/23 09:12:23;;;;;;;8.05;5.15;;;;;;;25.41;70.84;100556.25;5057059;28;20410;-67
2023/08/23 09:14:49;;;;;;;10.70;5.53;;;;;;;25.52;71.68;100559.06;5075028;28;20044;-68
2023/08/23 09:17:15;;;;;;;5.63;4.80;;;;;;;25.65;70.97;100562.13;5074841;28;20088;-68
2023/08/23 09:19:40;;;;;;;5.50;4.70;;;;;;;25.77;69.27;100563.84;5074676;28;20109;-68
2023/08/23 09:22:06;;;;;;;10.23;4.72;;;;;;;26.01;68.33;100564.19;5074759;28;20115;-68
2023/08/23 09:24:33;;;;;;;7.25;4.85;;;;;;;26.12;67.63;100561.22;5074678;28;20040;-67
2023/08/23 09:26:59;;;;;;;6.18;4.00;;;;;;;26.21;65.47;100554.19;5074778;28;20037;-68
2023/08/23 09:29:25;;;;;;;4.15;3.72;;;;;;;26.37;64.29;100544.09;5074549;28;20483;-68
2023/08/23 09:31:50;;;;;;;8.68;4.65;;;;;;;26.58;64.93;100541.41;5074491;28;20044;-68
2023/08/23 09:34:16;;;;;;;6.97;4.22;;;;;;;26.72;63.76;100547.97;5074829;28;20503;-68
2023/08/23 09:36:42;;;;;;;5.43;4.28;;;;;;;26.76;61.68;100528.03;5074504;28;20480;-68
2023/08/23 09:39:11;;;;;;;5.20;4.10;;;;;;;27.01;60.28;100542.78;5074457;28;20063;-68
2023/08/23 09:41:39;;;;;;;5.70;3.80;;;;;;;27.14;56.54;100536.78;5074674;28;20040;-68
2023/08/23 09:44:04;;;;;;;7.43;3.90;;;;;;;27.33;59.49;100526.06;5074524;28;20484;-67
2023/08/23 09:46:33;;;;;;;4.38;3.28;;;;;;;27.50;57.05;100537.50;5074917;28;20042;-68
2023/08/23 09:49:02;;;;;;;6.85;3.88;;;;;;;27.72;55.89;100531.72;5073989;28;20032;-68
2023/08/23 09:51:29;;;;;;;4.40;3.67;;;;;;;27.96;56.96;100534.59;5074410;28;20044;-68
2023/08/23 09:53:58;;;;;;;4.43;3.42;;;;;;;28.21;55.30;100547.31;5074684;28;20422;-69
2023/08/23 09:56:24;;;;;;;5.13;3.55;;;;;;;28.35;53.03;100537.41;5074180;28;20040;-68
2023/08/23 09:58:50;;;;;;;6.63;3.38;;;;;;;28.69;53.09;100539.38;5074108;28;20460;-67
2023/08/23 10:01:16;;;;;;;6.50;3.50;;;;;;;29.02;51.11;100539.66;5074136;28;20051;-68
2023/08/23 10:03:42;;;;;;;5.90;3.00;;;;;;;29.22;49.61;100553.16;5074360;28;20399;-69
2023/08/23 10:06:08;;;;;;;4.47;3.58;;;;;;;29.46;50.13;100537.50;5070756;28;20123;-69
2023/08/23 10:08:35;;;;;;;4.17;3.30;;;;;;;29.77;48.42;100545.41;5066642;28;20048;-69
2023/08/23 10:11:01;;;;;;;4.95;2.63;;;;;;;30.09;47.41;100547.47;5063416;28;20045;-68
2023/08/23 10:13:30;;;;;;;3.47;2.70;;;;;;;30.45;46.10;100545.03;5063955;28;20105;-69
2023/08/23 10:15:57;;;;;;;5.80;3.35;;;;;;;30.64;46.16;100542.25;5062331;28;20029;-69
2023/08/23 10:18:24;;;;;;;5.10;2.85;;;;;;;31.07;45.20;100542.91;5063727;28;20116;-69
2023/08/23 10:20:51;;;;;;;2.83;2.63;;;;;;;31.11;43.71;100543.13;5063756;28;20518;-69
2023/08/23 10:23:18;;;;;;;4.43;2.80;;;;;;;31.43;43.17;100544.19;5062417;28;20032;-68
2023/08/23 10:25:45;;;;;;;3.08;2.78;;;;;;;31.65;41.16;100533.31;5063418;28;20112;-68
2023/08/23 10:28:12;;;;;;;3.60;2.55;;;;;;;31.71;44.52;100540.34;5063974;28;20442;-69
2023/08/23 10:30:41;;;;;;;3.05;2.63;;;;;;;32.07;41.60;100539.56;5062071;28;20045;-69
2023/08/23 10:33:12;;;;;;;3.17;2.60;;;;;;;32.40;40.86;100534.69;5062927;28;20032;-69
2023/08/23 10:35:38;;;;;;;4.15;2.47;;;;;;;32.58;40.44;100541.97;5063966;28;20052;-69
2023/08/23 10:38:09;;;;;;;3.40;2.50;;;;;;;32.73;40.38;100523.41;5063063;28;20017;-69
2023/08/23 10:40:36;;;;;;;3.70;2.65;;;;;;;32.84;39.40;100531.13;5067320;28;20111;-69
2023/08/23 10:43:09;;;;;;;4.50;2.20;;;;;;;32.94;39.94;100519.88;5055490;28;20044;-69
2023/08/23 10:45:57;;;;;;;4.28;2.60;;;;;;;32.86;39.61;100515.09;5073289;28;20036;-70
2023/08/23 10:48:23;;;;;;;4.40;2.88;;;;;;;33.39;38.60;100517.00;5073354;28;20194;-68
2023/08/23 10:50:50;;;;;;;4.43;2.93;;;;;;;33.19;38.79;100514.78;5055068;28;20104;-67
2023/08/23 10:53:16;;;;;;;;;;;;;;;33.80;38.22;100515.81;5073539;28;20143;-70
2023/08/23 10:55:41;;;;;;;6.63;2.78;;;;;;;33.90;36.82;100515.50;5073014;28;19916;-70
2023/08/23 10:58:07;;;;;;;2.63;2.20;;;;;;;33.75;37.14;100515.97;5073050;28;20400;-69
2023/08/23 11:00:32;;;;;;;4.03;2.50;;;;;;;34.07;36.30;100505.63;5072749;28;20040;-69
2023/08/23 11:02:58;;;;;;;3.03;2.47;;;;;;;34.10;36.52;100507.72;5072970;28;20086;-70
2023/08/23 11:05:24;;;;;;;3.20;2.30;;;;;;;34.19;36.21;100516.84;5072900;28;20090;-70
2023/08/23 11:07:50;;;;;;;2.90;2.47;;;;;;;34.44;35.83;100515.25;5072766;28;20544;-70
2023/08/23 11:10:16;;;;;;;6.22;2.55;;;;;;;33.66;36.92;100515.94;5072647;28;20036;-70
2023/08/23 11:12:41;;;;;;;2.87;2.47;;;;;;;33.50;35.97;100514.75;5072666;28;20093;-70
2023/08/23 11:15:07;;;;;;;3.23;2.00;;;;;;;33.78;37.22;100518.09;5072599;28;20507;-70
2023/08/23 11:17:33;;;;;;;3.40;3.10;;;;;;;34.02;38.09;100506.59;5072751;28;20040;-70
2023/08/23 11:20:00;;;;;;;7.10;2.70;;;;;;;34.70;36.24;100499.44;5072395;28;20483;-70
2023/08/23 11:22:25;;;;;;;4.15;2.78;;;;;;;35.35;34.75;100506.53;5072547;28;20082;-69
2023/08/23 11:24:50;;;;;;;3.83;2.53;;;;;;;35.34;34.85;100506.84;5072329;28;20040;-69
2023/08/23 11:27:16;;;;;;;2.87;2.20;;;;;;;35.40;34.78;100504.72;5072401;28;20037;-69
2023/08/23 11:29:44;;;;;;;2.87;2.27;;;;;;;34.16;35.72;100515.53;5072020;28;20404;-70
2023/08/23 11:32:11;;;;;;;3.03;2.40;;;;;;;35.64;34.30;100504.94;5072098;28;20040;-70
2023/08/23 11:34:37;;;;;;;4.47;2.25;;;;;;;35.83;33.18;100502.53;5072330;28;20036;-70
2023/08/23 11:37:09;;;;;;;4.37;2.43;;;;;;;35.57;33.45;100493.59;5072245;28;20048;-70
2023/08/23 11:39:35;;;;;;;3.72;2.58;;;;;;;36.11;33.47;100500.06;5071968;28;20475;-70
2023/08/23 11:42:01;;;;;;;3.38;2.28;;;;;;;36.32;32.99;100499.22;5072255;28;20039;-70
2023/08/23 11:44:29;;;;;;;3.55;2.08;;;;;;;36.67;32.54;100499.75;5072370;28;20029;-69
2023/08/23 11:46:58;;;;;;;3.45;2.10;;;;;;;36.52;31.59;100508.72;5072084;28;20048;-70
2023/08/23 11:49:24;;;;;;;2.83;2.10;;;;;;;36.82;31.82;100501.03;5071917;28;20051;-70
2023/08/23 11:51:50;;;;;;;3.13;2.10;;;;;;;36.87;31.41;100501.66;5072138;28;20685;-70
2023/08/23 11:54:17;;;;;;;3.75;2.20;;;;;;;36.87;31.35;100504.44;5072081;28;20124;-69
2023/08/23 11:56:44;;;;;;;4.20;2.30;;;;;;;35.94;31.55;100489.13;5072024;28;20514;-70
2023/08/23 11:59:11;;;;;;;3.28;2.13;;;;;;;36.22;31.89;100492.16;5053960;28;20049;-69
2023/08/23 12:01:38;;;;;;;2.95;2.17;;;;;;;35.66;32.84;100494.31;5071987;28;20036;-69
2023/08/23 12:04:05;;;;;;;2.83;2.38;;;;;;;34.68;33.91;100479.56;5071924;28;20051;-70
2023/08/23 12:06:30;;;;;;;;;;;;;;;34.59;33.75;100478.78;5072427;28;20487;-69
2023/08/23 12:08:55;;;;;;;3.88;2.78;;;;;;;34.93;34.17;100477.91;5071533;28;19923;-70
2023/08/23 12:11:21;;;;;;;4.43;2.63;;;;;;;35.38;35.20;100479.31;5071864;28;20491;-69
2023/08/23 12:13:46;;;;;;;4.40;2.77;;;;;;;35.53;34.38;100478.78;5071855;28;20040;-70
2023/08/23 12:16:12;;;;;;;4.53;2.70;;;;;;;35.99;34.79;100472.28;5071803;28;20411;-70
2023/08/23 12:18:37;;;;;;;5.27;3.20;;;;;;;35.85;34.41;100480.81;5071783;28;20044;-71
2023/08/23 12:21:03;;;;;;;6.90;3.20;;;;;;;36.13;34.54;100475.59;5071671;28;20119;-70
2023/08/23 12:23:30;;;;;;;5.38;2.95;;;;;;;36.21;34.17;100471.13;5071711;28;20036;-69
2023/08/23 12:25:56;;;;;;;4.68;2.72;;;;;;;36.60;34.38;100477.28;5071730;28;20036;-69
2023/08/23 12:28:22;;;;;;;3.30;2.83;;;;;;;37.18;32.72;100475.34;5071784;28;20036;-70
2023/08/23 12:30:47;;;;;;;4.00;2.60;;;;;;;37.55;32.72;100480.88;5071523;28;20036;-70
2023/08/23 12:33:12;;;;;;;3.47;2.70;;;;;;;37.53;32.04;100477.66;5071703;28;20290;-69
2023/08/23 12:35:38;;;;;;;4.07;2.60;;;;;;;37.32;32.20;100475.78;5071315;28;20478;-70
2023/08/23 12:38:03;;;;;;;4.07;2.60;;;;;;;37.66;30.83;100491.16;5070251;28;20044;-70
2023/08/23 12:40:29;;;;;;;5.20;2.60;;;;;;;37.56;32.52;100485.25;5069708;28;20036;-70
2023/08/23 12:42:54;;;;;;;3.73;2.60;;;;;;;37.92;30.99;100489.97;5072103;28;20033;-68
2023/08/23 12:45:20;;;;;;;4.47;2.70;;;;;;;37.93;31.47;100483.25;5074588;28;20134;-68
2023/08/23 12:47:46;;;;;;;5.38;2.53;;;;;;;37.97;30.09;100476.66;5074934;28;20036;-69
2023/08/23 12:50:11;;;;;;;3.47;2.47;;;;;;;37.93;30.32;100484.06;5075125;28;20442;-68
2023/08/23 12:52:37;;;;;;;3.77;2.50;;;;;;;37.78;28.68;100476.44;5075137;28;20048;-68
2023/08/23 12:55:04;;;;;;;4.35;2.35;;;;;;;38.01;28.84;100473.97;5075138;28;20395;-68
2023/08/23 12:57:31;;;;;;;4.78;2.85;;;;;;;38.51;28.63;100476.22;5074584;28;20155;-68
2023/08/23 12:59:57;;;;;;;2.70;2.25;;;;;;;38.83;28.46;100481.03;5074918;28;20043;-69
2023/08/23 13:02:22;;;;;;;4.63;2.15;;;;;;;38.70;27.70;100471.94;5075190;28;20040;-68
2023/08/23 13:04:48;;;;;;;3.43;2.20;;;;;;;38.57;29.19;100481.53;5075308;28;20036;-69
2023/08/23 13:07:13;;;;;;;3.57;2.37;;;;;;;38.74;29.48;100482.03;5075067;28;20737;-69
2023/08/23 13:09:38;;;;;;;2.30;2.10;;;;;;;38.43;26.37;100473.59;5074796;28;20042;-68
2023/08/23 13:12:04;;;;;;;1.70;1.57;;;;;;;37.98;25.90;100471.91;5074941;28;20037;-69
2023/08/23 13:14:30;;;;;;;4.35;1.80;;;;;;;38.53;25.63;100479.44;5074989;28;20302;-69
2023/08/23 13:16:55;;;;;;;2.37;1.80;;;;;;;38.77;26.02;100483.28;5074783;28;20051;-68
2023/08/23 13:19:20;;;;;;;4.93;1.83;;;;;;;38.54;26.11;100478.28;5074635;28;20290;-69
2023/08/23 13:21:46;;;;;;;2.57;1.97;;;;;;;37.82;25.25;100466.28;5074547;28;20538;-69
2023/08/23 13:24:21;;;;;;;2.70;1.60;;;;;;;37.96;26.83;100468.66;5074758;28;20123;-68
2023/08/23 13:26:48;;;;;;;3.25;2.15;;;;;;;38.66;26.05;100468.22;5074602;28;20487;-69
2023/08/23 13:29:13;;;;;;;;;;;;;;;38.09;25.85;100459.13;5074798;28;20520;-69
2023/08/23 13:31:39;;;;;;;2.70;1.60;;;;;;;38.44;25.14;100453.75;5074536;28;20062;-69
2023/08/23 13:34:05;;;;;;;4.93;1.95;;;;;;;37.71;25.07;100448.44;5074530;28;20037;-69
2023/08/23 13:36:30;;;;;;;1.80;1.60;;;;;;;37.56;25.21;100449.16;5074468;28;20048;-69
2023/08/23 13:38:56;;;;;;;3.77;2.07;;;;;;;37.80;26.32;100445.53;5074393;28;20036;-68
2023/08/23 13:41:21;;;;;;;2.72;1.83;;;;;;;37.78;26.03;100453.41;5074558;28;20483;-69
2023/08/23 13:43:47;;;;;;;1.93;1.70;;;;;;;37.06;26.89;100445.59;5074467;28;20041;-69
2023/08/23 13:46:12;;;;;;;3.20;1.80;;;;;;;36.38;27.01;100442.41;5074262;28;20302;-68
2023/08/23 13:48:40;;;;;;;2.43;2.00;;;;;;;36.05;27.59;100434.88;5074318;28;20059;-68
2023/08/23 13:51:05;;;;;;;2.55;1.83;;;;;;;35.79;29.27;100432.31;5074209;28;20036;-68
2023/08/23 13:53:31;;;;;;;3.63;2.20;;;;;;;35.30;30.62;100429.22;5056007;28;20380;-68
2023/08/23 13:55:56;;;;;;;3.13;2.23;;;;;;;35.26;30.46;100425.47;5074211;28;20041;-68
2023/08/23 13:58:22;;;;;;;3.43;2.20;;;;;;;35.27;30.69;100423.50;5074141;28;20040;-67
2023/08/23 14:00:47;;;;;;;3.73;2.30;;;;;;;34.89;30.98;100421.59;5073905;28;20063;-68
2023/08/23 14:03:12;;;;;;;4.70;2.30;;;;;;;34.87;30.93;100428.56;5074085;28;20127;-68
2023/08/23 14:05:38;;;;;;;5.30;2.77;;;;;;;34.14;32.06;100418.34;5073989;28;20041;-68
2023/08/23 14:08:03;;;;;;;3.60;2.40;;;;;;;34.14;32.88;100429.38;5073938;28;20044;-68
2023/08/23 14:10:31;;;;;;;3.00;2.03;;;;;;;33.74;32.69;100421.25;5073675;28;20097;-68
2023/08/23 14:12:57;;;;;;;2.45;2.10;;;;;;;33.35;34.68;100418.56;5073855;28;20436;-68
2023/08/23 14:15:22;;;;;;;4.10;2.13;;;;;;;33.25;33.94;100422.44;5073732;28;20104;-68
2023/08/23 14:17:48;;;;;;;4.17;2.23;;;;;;;33.16;34.46;100429.88;5073850;28;20036;-68
2023/08/23 14:20:13;;;;;;;3.17;2.30;;;;;;;33.14;34.23;100419.16;5073359;28;20045;-69
2023/08/23 14:22:39;;;;;;;5.33;2.67;;;;;;;33.09;34.79;100415.75;5074032;28;20035;-68
2023/08/23 14:25:06;;;;;;;3.43;2.27;;;;;;;32.89;35.22;100408.84;5073696;28;20476;-68
2023/08/23 14:27:32;;;;;;;2.72;2.15;;;;;;;32.71;35.06;100420.91;5073652;28;20043;-68
2023/08/23 14:29:58;;;;;;;4.75;2.67;;;;;;;32.74;35.62;100429.38;5073509;28;20119;-68
2023/08/23 14:32:23;;;;;;;4.63;2.30;;;;;;;32.59;35.21;100424.25;5075901;28;20136;-68
2023/08/23 14:34:48;;;;;;;3.10;2.10;;;;;;;32.58;36.32;100426.19;5073807;28;20047;-68
2023/08/23 14:37:14;;;;;;;3.97;2.60;;;;;;;32.63;35.85;100414.22;5073464;28;20044;-68
2023/08/23 14:39:41;;;;;;;3.23;2.20;;;;;;;32.79;36.27;100417.38;5073249;28;20048;-67
2023/08/23 14:42:06;;;;;;;3.35;2.22;;;;;;;32.64;36.44;100415.84;5055559;28;20033;-68
2023/08/23 14:44:31;;;;;;;5.57;2.60;;;;;;;32.16;36.10;100415.69;5073299;28;20115;-68
2023/08/23 14:46:58;;;;;;;3.43;2.27;;;;;;;32.36;36.73;100420.72;5073177;28;20510;-68
2023/08/23 14:49:23;;;;;;;;;;;;;;;32.43;37.46;100418.31;5073314;28;20113;-68
2023/08/23 14:51:49;;;;;;;4.27;2.60;;;;;;;32.16;37.30;100401.91;5073161;28;19924;-68
2023/08/23 14:54:14;;;;;;;2.87;2.40;;;;;;;32.20;37.46;100408.41;5073215;28;20094;-68
2023/08/23 14:56:39;;;;;;;3.00;2.40;;;;;;;32.16;37.99;100405.50;5073343;28;20530;-68
2023/08/23 14:59:05;;;;;;;3.77;2.63;;;;;;;31.99;37.31;100403.41;5072686;28;20036;-68
2023/08/23 15:01:30;;;;;;;3.13;2.40;;;;;;;31.81;37.35;100401.63;5055182;28;20044;-68
2023/08/23 15:03:56;;;;;;;3.63;2.50;;;;;;;31.78;37.24;100400.34;5072779;28;20045;-68
2023/08/23 15:06:21;;;;;;;3.40;2.57;;;;;;;31.85;37.85;100403.47;5071848;28;20510;-68
2023/08/23 15:08:46;;;;;;;2.80;2.10;;;;;;;31.81;38.47;100410.72;5072432;28;20068;-68
2023/08/23 15:11:12;;;;;;;2.80;2.13;;;;;;;31.85;38.74;100410.91;5072642;28;20120;-67
2023/08/23 15:13:38;;;;;;;4.00;2.60;;;;;;;31.59;39.01;100414.22;5072673;28;20388;-68
2023/08/23 15:16:04;;;;;;;4.97;2.17;;;;;;;31.47;39.44;100396.59;5072442;28;20106;-68
2023/08/23 15:18:29;;;;;;;2.40;2.20;;;;;;;31.57;39.44;100410.97;5072496;28;20036;-68
2023/08/23 15:20:55;;;;;;;3.80;2.40;;;;;;;31.47;40.37;100399.34;5072245;28;20055;-68
2023/08/23 15:23:21;;;;;;;3.13;2.90;;;;;;;31.34;39.75;100393.56;5072505;28;20502;-67
2023/08/23 15:25:46;;;;;;;2.78;2.28;;;;;;;31.43;39.25;100395.59;5072379;28;20418;-68
2023/08/23 15:28:12;;;;;;;3.13;2.50;;;;;;;31.46;39.03;100398.56;5072444;28;20033;-68
2023/08/23 15:30:38;;;;;;;2.83;2.38;;;;;;;31.47;39.65;100391.91;5072118;28;20025;-68
2023/08/23 15:33:04;;;;;;;3.43;2.40;;;;;;;31.39;38.96;100391.84;5072336;28;20407;-68
2023/08/23 15:35:30;;;;;;;3.90;2.53;;;;;;;31.41;38.74;100404.16;5072392;28;20044;-68